createdAt,value
2023-05-25T00:00:27.317Z,4.00
2023-05-25T00:01:27.279Z,8.00
2023-05-25T00:02:27.312Z,4.00
2023-05-25T00:03:27.323Z,8.00
2023-05-25T00:04:27.472Z,8.00
2023-05-25T00:05:27.302Z,4.00
2023-05-25T00:06:27.231Z,4.00
2023-05-25T00:07:27.218Z,8.00
2023-05-25T00:08:27.212Z,8.00
2023-05-25T00:09:27.202Z,4.00
2023-05-25T00:10:27.211Z,8.00
2023-05-25T00:11:27.174Z,4.00
2023-05-25T00:12:27.169Z,8.00
2023-05-25T00:13:27.153Z,4.00
2023-05-25T00:14:27.167Z,4.00
2023-05-25T00:15:27.148Z,4.00
2023-05-25T00:16:27.167Z,8.00
2023-05-25T00:17:27.157Z,4.00
2023-05-25T00:18:27.236Z,8.00
2023-05-25T00:19:27.097Z,8.00
2023-05-25T00:20:27.138Z,4.00
2023-05-25T00:21:27.084Z,8.00
2023-05-25T00:22:27.052Z,4.00
2023-05-25T00:23:27.070Z,8.00
2023-05-25T00:24:27.038Z,4.00
2023-05-25T00:25:27.019Z,4.00
2023-05-25T00:26:27.014Z,8.00
2023-05-25T00:27:26.992Z,8.00
2023-05-25T00:28:27.011Z,8.00
2023-05-25T00:29:26.978Z,8.00
2023-05-25T00:30:26.960Z,8.00
2023-05-25T00:31:27.028Z,8.00
2023-05-25T00:32:26.985Z,4.00
2023-05-25T00:33:26.973Z,8.00
2023-05-25T00:34:26.953Z,8.00
2023-05-25T00:35:26.931Z,4.00
2023-05-25T00:36:26.905Z,8.00
2023-05-25T00:37:26.918Z,4.00
2023-05-25T00:38:26.898Z,8.00
2023-05-25T00:39:26.900Z,4.00
2023-05-25T00:40:26.854Z,8.00
2023-05-25T00:41:26.857Z,4.00
2023-05-25T00:42:26.836Z,4.00
2023-05-25T00:43:26.832Z,8.00
2023-05-25T00:44:26.843Z,8.00
2023-05-25T00:45:26.809Z,4.00
2023-05-25T00:46:26.861Z,4.00
2023-05-25T00:47:26.819Z,8.00
2023-05-25T00:48:26.771Z,8.00
2023-05-25T00:49:26.792Z,4.00
2023-05-25T00:50:26.749Z,8.00
2023-05-25T00:51:26.742Z,4.00
2023-05-25T00:52:26.731Z,8.00
2023-05-25T00:53:26.749Z,8.00
2023-05-25T00:54:26.740Z,4.00
2023-05-25T00:55:26.701Z,4.00
2023-05-25T00:56:26.684Z,8.00
2023-05-25T00:57:26.690Z,8.00
2023-05-25T00:58:26.666Z,4.00
2023-05-25T00:59:26.684Z,4.00
2023-05-25T01:00:26.660Z,4.00
2023-05-25T01:01:26.686Z,8.00
2023-05-25T01:02:26.659Z,8.00
2023-05-25T01:03:26.750Z,8.00
2023-05-25T01:04:26.629Z,4.00
2023-05-25T01:05:26.620Z,4.00
2023-05-25T01:06:26.581Z,4.00
2023-05-25T01:07:26.580Z,8.00
2023-05-25T01:08:26.557Z,8.00
2023-05-25T01:09:26.594Z,8.00
2023-05-25T01:10:26.543Z,8.00
2023-05-25T01:11:26.538Z,4.00
2023-05-25T01:12:26.549Z,8.00
2023-05-25T01:13:26.507Z,8.00
2023-05-25T01:14:26.489Z,8.00
2023-05-25T01:15:26.483Z,8.00
2023-05-25T01:16:26.518Z,8.00
2023-05-25T01:17:26.624Z,8.00
2023-05-25T01:18:26.453Z,8.00
2023-05-25T01:19:26.446Z,8.00
2023-05-25T01:20:26.457Z,8.00
2023-05-25T01:21:26.423Z,8.00
2023-05-25T01:22:26.425Z,8.00
2023-05-25T01:23:26.398Z,8.00
2023-05-25T01:24:26.425Z,8.00
2023-05-25T01:25:26.417Z,8.00
2023-05-25T01:26:26.375Z,8.00
2023-05-25T01:27:26.358Z,8.00
2023-05-25T01:28:26.335Z,8.00
2023-05-25T01:29:26.336Z,8.00
2023-05-25T01:30:26.349Z,8.00
2023-05-25T01:31:26.341Z,8.00
2023-05-25T01:32:26.293Z,8.00
2023-05-25T01:33:26.281Z,8.00
2023-05-25T01:34:26.274Z,8.00
2023-05-25T01:35:26.292Z,8.00
2023-05-25T01:36:26.255Z,8.00
2023-05-25T01:37:26.247Z,8.00
2023-05-25T01:38:26.235Z,8.00
2023-05-25T01:39:26.227Z,8.00
2023-05-25T01:40:26.248Z,8.00
2023-05-25T01:41:26.225Z,8.00
2023-05-25T01:42:26.186Z,8.00
2023-05-25T01:43:26.176Z,8.00
2023-05-25T01:44:26.166Z,8.00
2023-05-25T01:45:26.183Z,8.00
2023-05-25T01:46:26.184Z,8.00
2023-05-25T01:47:26.179Z,8.00
2023-05-25T01:48:26.122Z,8.00
2023-05-25T01:49:26.112Z,8.00
2023-05-25T01:50:26.120Z,8.00
2023-05-25T01:51:26.095Z,8.00
2023-05-25T01:52:26.127Z,8.00
2023-05-25T01:53:26.075Z,8.00
2023-05-25T01:54:26.058Z,8.00
2023-05-25T01:55:26.080Z,8.00
2023-05-25T01:56:26.032Z,8.00
2023-05-25T01:57:26.048Z,8.00
2023-05-25T01:58:26.008Z,8.00
2023-05-25T01:59:25.999Z,8.00
2023-05-25T02:00:26.011Z,8.00
2023-05-25T02:01:26.013Z,8.00
2023-05-25T02:02:26.014Z,8.00
2023-05-25T02:03:25.960Z,8.00
2023-05-25T02:04:25.997Z,8.00
2023-05-25T02:05:25.955Z,8.00
2023-05-25T02:06:25.927Z,8.00
2023-05-25T02:07:25.941Z,8.00
2023-05-25T02:08:25.920Z,8.00
2023-05-25T02:09:25.897Z,8.00
2023-05-25T02:10:25.870Z,4.00
2023-05-25T02:11:25.879Z,4.00
2023-05-25T02:12:25.891Z,4.00
2023-05-25T02:13:25.974Z,4.00
2023-05-25T02:14:25.839Z,4.00
2023-05-25T02:15:25.832Z,4.00
2023-05-25T02:16:25.874Z,4.00
2023-05-25T02:17:25.856Z,4.00
2023-05-25T02:18:25.820Z,4.00
2023-05-25T02:19:25.784Z,4.00
2023-05-25T02:20:25.823Z,4.00
2023-05-25T02:21:25.768Z,4.00
2023-05-25T02:22:25.777Z,8.00
2023-05-25T02:23:25.742Z,8.00
2023-05-25T02:24:25.742Z,8.00
2023-05-25T02:25:25.762Z,4.00
2023-05-25T02:26:25.711Z,4.00
2023-05-25T02:27:25.705Z,8.00
2023-05-25T02:28:25.710Z,8.00
2023-05-25T02:29:25.712Z,4.00
2023-05-25T02:30:25.692Z,8.00
2023-05-25T02:31:25.717Z,8.00
2023-05-25T02:32:25.697Z,8.00
2023-05-25T02:33:25.679Z,8.00
2023-05-25T02:34:25.632Z,12.00
2023-05-25T02:35:25.636Z,8.00
2023-05-25T02:36:25.601Z,12.00
2023-05-25T02:37:25.607Z,12.00
2023-05-25T02:38:25.615Z,12.00
2023-05-25T02:39:25.569Z,16.00
2023-05-25T02:40:25.560Z,16.00
2023-05-25T02:41:25.554Z,16.00
2023-05-25T02:42:25.541Z,16.00
2023-05-25T02:43:25.562Z,20.00
2023-05-25T02:44:25.529Z,20.00
2023-05-25T02:45:25.533Z,20.00
2023-05-25T02:46:25.542Z,24.00
2023-05-25T02:47:25.565Z,28.00
2023-05-25T02:48:25.501Z,28.00
2023-05-25T02:49:25.504Z,32.00
2023-05-25T02:50:25.457Z,32.00
2023-05-25T02:51:25.439Z,32.00
2023-05-25T02:52:25.456Z,36.00
2023-05-25T02:53:25.457Z,40.00
2023-05-25T02:54:25.409Z,44.00
2023-05-25T02:55:25.399Z,48.00
2023-05-25T02:56:25.382Z,48.00
2023-05-25T02:57:25.401Z,52.00
2023-05-25T02:58:25.382Z,56.00
2023-05-25T02:59:25.357Z,56.00
2023-05-25T03:00:25.343Z,64.00
2023-05-25T03:01:25.539Z,68.00
2023-05-25T03:02:25.527Z,72.00
2023-05-25T03:03:25.342Z,76.00
2023-05-25T03:04:25.298Z,80.00
2023-05-25T03:05:25.288Z,88.00
2023-05-25T03:06:25.272Z,92.00
2023-05-25T03:07:25.287Z,100.00
2023-05-25T03:08:25.263Z,100.00
2023-05-25T03:09:25.246Z,108.00
2023-05-25T03:10:25.221Z,116.00
2023-05-25T03:11:25.232Z,120.00
2023-05-25T03:12:25.233Z,128.00
2023-05-25T03:13:25.232Z,132.00
2023-05-25T03:14:25.189Z,140.00
2023-05-25T03:15:25.177Z,148.00
2023-05-25T03:16:25.191Z,152.00
2023-05-25T03:17:25.301Z,156.00
2023-05-25T03:18:25.161Z,164.00
2023-05-25T03:19:25.137Z,172.00
2023-05-25T03:20:25.150Z,180.00
2023-05-25T03:21:25.121Z,188.00
2023-05-25T03:22:25.101Z,196.00
2023-05-25T03:23:25.111Z,200.00
2023-05-25T03:24:25.079Z,204.00
2023-05-25T03:25:25.070Z,212.00
2023-05-25T03:26:25.059Z,216.00
2023-05-25T03:27:25.050Z,228.00
2023-05-25T03:28:25.056Z,236.00
2023-05-25T03:29:25.037Z,244.00
2023-05-25T03:30:25.026Z,252.00
2023-05-25T03:31:25.041Z,256.00
2023-05-25T03:32:25.191Z,268.00
2023-05-25T03:33:25.062Z,276.00
2023-05-25T03:34:24.978Z,284.00
2023-05-25T03:35:24.970Z,288.00
2023-05-25T03:36:24.970Z,300.00
2023-05-25T03:37:24.940Z,308.00
2023-05-25T03:38:24.940Z,316.00
2023-05-25T03:39:24.949Z,324.00
2023-05-25T03:40:24.912Z,332.00
2023-05-25T03:41:24.915Z,344.00
2023-05-25T03:42:24.879Z,352.00
2023-05-25T03:43:24.875Z,360.00
2023-05-25T03:44:24.893Z,368.00
2023-05-25T03:45:24.851Z,376.00
2023-05-25T03:46:24.931Z,392.00
2023-05-25T03:47:24.872Z,404.00
2023-05-25T03:48:24.826Z,412.00
2023-05-25T03:49:24.857Z,424.00
2023-05-25T03:50:24.811Z,432.00
2023-05-25T03:51:24.784Z,432.00
2023-05-25T03:52:24.777Z,440.00
2023-05-25T03:53:24.761Z,448.00
2023-05-25T03:54:24.784Z,464.00
2023-05-25T03:55:24.746Z,480.00
2023-05-25T03:56:24.744Z,492.00
2023-05-25T03:57:24.722Z,500.00
2023-05-25T03:58:24.716Z,508.00
2023-05-25T03:59:24.715Z,524.00
2023-05-25T04:00:24.689Z,536.00
2023-05-25T04:01:24.675Z,552.00
2023-05-25T04:02:24.714Z,560.00
2023-05-25T04:03:24.751Z,572.00
2023-05-25T04:04:24.673Z,576.00
2023-05-25T04:05:24.660Z,588.00
2023-05-25T04:06:24.628Z,600.00
2023-05-25T04:07:24.608Z,620.00
2023-05-25T04:08:24.596Z,632.00
2023-05-25T04:09:24.610Z,632.00
2023-05-25T04:10:24.601Z,632.00
2023-05-25T04:11:24.560Z,632.00
2023-05-25T04:12:24.549Z,636.00
2023-05-25T04:13:24.547Z,640.00
2023-05-25T04:14:24.530Z,652.00
2023-05-25T04:15:24.541Z,660.00
2023-05-25T04:16:24.562Z,664.00
2023-05-25T04:17:24.536Z,672.00
2023-05-25T04:18:24.491Z,680.00
2023-05-25T04:19:24.482Z,688.00
2023-05-25T04:20:24.577Z,700.00
2023-05-25T04:21:24.478Z,704.00
2023-05-25T04:22:24.442Z,712.00
2023-05-25T04:23:24.440Z,724.00
2023-05-25T04:24:24.423Z,728.00
2023-05-25T04:25:24.723Z,740.00
2023-05-25T04:26:24.402Z,748.00
2023-05-25T04:27:24.395Z,760.00
2023-05-25T04:28:24.404Z,764.00
2023-05-25T04:29:24.368Z,772.00
2023-05-25T04:30:24.384Z,780.00
2023-05-25T04:31:24.378Z,792.00
2023-05-25T04:32:24.374Z,796.00
2023-05-25T04:33:24.318Z,808.00
2023-05-25T04:34:24.309Z,812.00
2023-05-25T04:35:24.321Z,820.00
2023-05-25T04:36:24.319Z,824.00
2023-05-25T04:37:24.293Z,832.00
2023-05-25T04:38:24.261Z,844.00
2023-05-25T04:39:24.249Z,848.00
2023-05-25T04:40:24.277Z,852.00
2023-05-25T04:41:24.261Z,864.00
2023-05-25T04:42:24.262Z,876.00
2023-05-25T04:43:24.214Z,884.00
2023-05-25T04:44:24.217Z,896.00
2023-05-25T04:45:24.235Z,904.00
2023-05-25T04:46:24.228Z,916.00
2023-05-25T04:47:24.186Z,928.00
2023-05-25T04:48:24.158Z,936.00
2023-05-25T04:49:24.135Z,940.00
2023-05-25T04:50:24.131Z,940.00
2023-05-25T04:51:24.140Z,948.00
2023-05-25T04:52:24.132Z,956.00
2023-05-25T04:53:24.110Z,964.00
2023-05-25T04:54:24.087Z,968.00
2023-05-25T04:55:24.072Z,980.00
2023-05-25T04:56:24.097Z,988.00
2023-05-25T04:57:24.073Z,996.00
2023-05-25T04:58:24.049Z,1008.00
2023-05-25T04:59:24.051Z,1016.00
2023-05-25T05:00:24.030Z,1024.00
2023-05-25T05:01:24.185Z,1032.00
2023-05-25T05:02:24.021Z,1036.00
2023-05-25T05:03:24.120Z,1044.00
2023-05-25T05:04:23.989Z,1056.00
2023-05-25T05:05:23.992Z,1084.00
2023-05-25T05:06:23.991Z,1104.00
2023-05-25T05:07:23.944Z,1092.00
2023-05-25T05:08:23.936Z,1100.00
2023-05-25T05:09:23.946Z,1108.00
2023-05-25T05:10:23.950Z,1112.00
2023-05-25T05:11:23.927Z,1128.00
2023-05-25T05:12:23.924Z,1140.00
2023-05-25T05:13:23.882Z,1160.00
2023-05-25T05:14:23.868Z,1176.00
2023-05-25T05:15:23.853Z,1176.00
2023-05-25T05:16:23.901Z,1180.00
2023-05-25T05:17:23.872Z,1184.00
2023-05-25T05:18:23.935Z,1196.00
2023-05-25T05:19:23.821Z,1208.00
2023-05-25T05:20:23.839Z,1216.00
2023-05-25T05:21:23.817Z,1220.00
2023-05-25T05:22:23.788Z,1228.00
2023-05-25T05:23:23.768Z,1244.00
2023-05-25T05:24:23.761Z,1244.00
2023-05-25T05:25:23.776Z,1268.00
2023-05-25T05:26:23.770Z,1268.00
2023-05-25T05:27:23.729Z,1276.00
2023-05-25T05:28:23.744Z,1284.00
2023-05-25T05:29:23.709Z,1284.00
2023-05-25T05:30:23.693Z,1296.00
2023-05-25T05:31:23.736Z,1300.00
2023-05-25T05:32:23.706Z,1328.00
2023-05-25T05:33:23.784Z,1328.00
2023-05-25T05:34:23.658Z,1344.00
2023-05-25T05:35:23.637Z,1360.00
2023-05-25T05:36:23.636Z,1368.00
2023-05-25T05:37:23.655Z,1376.00
2023-05-25T05:38:23.612Z,1392.00
2023-05-25T05:39:23.605Z,1400.00
2023-05-25T05:40:23.598Z,1408.00
2023-05-25T05:41:23.595Z,1424.00
2023-05-25T05:42:23.607Z,1444.00
2023-05-25T05:43:23.548Z,1536.00
2023-05-25T05:44:26.214Z,1532.00
2023-05-25T05:45:23.530Z,1508.00
2023-05-25T05:46:23.573Z,1520.00
2023-05-25T05:47:23.507Z,1516.00
2023-05-25T05:48:23.519Z,1524.00
2023-05-25T05:49:23.487Z,1552.00
2023-05-25T05:50:23.477Z,1572.00
2023-05-25T05:51:23.498Z,1580.00
2023-05-25T05:52:23.463Z,1584.00
2023-05-25T05:53:23.446Z,1580.00
2023-05-25T05:54:23.435Z,1600.00
2023-05-25T05:55:23.419Z,1620.00
2023-05-25T05:56:23.455Z,1628.00
2023-05-25T05:57:23.422Z,1640.00
2023-05-25T05:58:23.408Z,1648.00
2023-05-25T05:59:23.380Z,1844.00
2023-05-25T06:00:23.394Z,1692.00
2023-05-25T06:01:23.359Z,1716.00
2023-05-25T06:02:23.448Z,1736.00
2023-05-25T06:03:23.385Z,1740.00
2023-05-25T06:04:23.323Z,1764.00
2023-05-25T06:05:23.345Z,1780.00
2023-05-25T06:06:23.300Z,1804.00
2023-05-25T06:07:23.319Z,1836.00
2023-05-25T06:08:23.304Z,1844.00
2023-05-25T06:09:23.282Z,1868.00
2023-05-25T06:10:23.278Z,1900.00
2023-05-25T06:11:23.247Z,1928.00
2023-05-25T06:12:23.241Z,2072.00
2023-05-25T06:13:23.325Z,2264.00
2023-05-25T06:14:23.224Z,2104.00
2023-05-25T06:15:23.202Z,2080.00
2023-05-25T06:16:23.223Z,2592.00
2023-05-25T06:17:23.208Z,2132.00
2023-05-25T06:18:23.194Z,2120.00
2023-05-25T06:19:23.164Z,2152.00
2023-05-25T06:20:23.219Z,2220.00
2023-05-25T06:21:23.138Z,2256.00
2023-05-25T06:22:23.131Z,2292.00
2023-05-25T06:23:23.142Z,2320.00
2023-05-25T06:24:23.110Z,2348.00
2023-05-25T06:25:23.109Z,2344.00
2023-05-25T06:26:23.080Z,2352.00
2023-05-25T06:27:23.071Z,2376.00
2023-05-25T06:28:23.073Z,2436.00
2023-05-25T06:29:23.114Z,2428.00
2023-05-25T06:30:23.051Z,2432.00
2023-05-25T06:31:23.091Z,2524.00
2023-05-25T06:32:23.050Z,3152.00
2023-05-25T06:33:23.007Z,3408.00
2023-05-25T06:34:22.996Z,2732.00
2023-05-25T06:35:23.004Z,2812.00
2023-05-25T06:36:22.998Z,2876.00
2023-05-25T06:37:22.960Z,2848.00
2023-05-25T06:38:22.957Z,2776.00
2023-05-25T06:39:22.944Z,2828.00
2023-05-25T06:40:22.931Z,2916.00
2023-05-25T06:41:22.951Z,2924.00
2023-05-25T06:42:22.918Z,2792.00
2023-05-25T06:43:22.919Z,2716.00
2023-05-25T06:44:22.893Z,2780.00
2023-05-25T06:45:22.906Z,2788.00
2023-05-25T06:46:22.970Z,2784.00
2023-05-25T06:47:22.948Z,2808.00
2023-05-25T06:48:22.868Z,3108.00
2023-05-25T06:49:22.831Z,3268.00
2023-05-25T06:50:22.818Z,3128.00
2023-05-25T06:51:22.815Z,2864.00
2023-05-25T06:52:22.837Z,2848.00
2023-05-25T06:53:22.798Z,3088.00
2023-05-25T06:54:22.817Z,2928.00
2023-05-25T06:55:22.763Z,3572.00
2023-05-25T06:56:22.769Z,3632.00
2023-05-25T06:57:22.738Z,2968.00
2023-05-25T06:58:22.737Z,3068.00
2023-05-25T06:59:22.726Z,3884.00
2023-05-25T07:00:22.732Z,3100.00
2023-05-25T07:01:22.785Z,3112.00
2023-05-25T07:02:22.718Z,3148.00
2023-05-25T07:03:22.691Z,3888.00
2023-05-25T07:04:22.682Z,4564.00
2023-05-25T07:05:22.758Z,3804.00
2023-05-25T07:06:22.655Z,3204.00
2023-05-25T07:07:22.642Z,3216.00
2023-05-25T07:08:22.640Z,3320.00
2023-05-25T07:09:22.696Z,5684.00
2023-05-25T07:10:22.671Z,4368.00
2023-05-25T07:11:22.627Z,3448.00
2023-05-25T07:12:22.593Z,3548.00
2023-05-25T07:13:22.588Z,3724.00
2023-05-25T07:14:22.567Z,3872.00
2023-05-25T07:15:22.598Z,4024.00
2023-05-25T07:16:22.578Z,4136.00
2023-05-25T07:17:22.640Z,4064.00
2023-05-25T07:18:22.532Z,3864.00
2023-05-25T07:19:22.510Z,3864.00
2023-05-25T07:20:22.571Z,3844.00
2023-05-25T07:21:22.486Z,3140.00
2023-05-25T07:22:22.497Z,4052.00
2023-05-25T07:23:22.467Z,4016.00
2023-05-25T07:24:22.482Z,4064.00
2023-05-25T07:25:22.453Z,4116.00
2023-05-25T07:26:22.466Z,4204.00
2023-05-25T07:27:22.427Z,4444.00
2023-05-25T07:28:22.419Z,4656.00
2023-05-25T07:29:22.428Z,4640.00
2023-05-25T07:30:22.410Z,4676.00
2023-05-25T07:31:22.482Z,8132.00
2023-05-25T07:32:22.419Z,13568.00
2023-05-25T07:33:22.383Z,7448.00
2023-05-25T07:34:22.377Z,29280.00
2023-05-25T07:35:22.350Z,27808.00
2023-05-25T07:36:22.331Z,6612.00
2023-05-25T07:37:22.318Z,17952.00
2023-05-25T07:38:22.309Z,11012.00
2023-05-25T07:39:22.315Z,27808.00
2023-05-25T07:40:22.317Z,20960.00
2023-05-25T07:41:22.277Z,18272.00
2023-05-25T07:42:22.261Z,20928.00
2023-05-25T07:43:22.299Z,4960.00
2023-05-25T07:44:22.251Z,5604.00
2023-05-25T07:45:22.239Z,17568.00
2023-05-25T07:46:22.283Z,4812.00
2023-05-25T07:47:22.213Z,5128.00
2023-05-25T07:48:22.202Z,5872.00
2023-05-25T07:49:22.224Z,8492.00
2023-05-25T07:50:22.180Z,56896.00
2023-05-25T07:51:22.171Z,63776.00
2023-05-25T07:52:22.164Z,64864.00
2023-05-25T07:53:22.144Z,63904.00
2023-05-25T07:54:22.161Z,39744.00
2023-05-25T07:55:22.121Z,59008.00
2023-05-25T07:56:22.119Z,33280.00
2023-05-25T07:57:22.100Z,7868.00
2023-05-25T07:58:22.099Z,17248.00
2023-05-25T07:59:22.107Z,10144.00
2023-05-25T08:00:22.072Z,13760.00
2023-05-25T08:01:22.059Z,14144.00
2023-05-25T08:02:22.182Z,7552.00
2023-05-25T08:03:31.814Z,10212.00
2023-05-25T08:04:23.197Z,61408.00
2023-05-25T08:05:22.045Z,56160.00
2023-05-25T08:06:22.013Z,55328.00
2023-05-25T08:07:22.013Z,58240.00
2023-05-25T08:08:21.988Z,63136.00
2023-05-25T08:09:21.990Z,64832.00
2023-05-25T08:10:22.012Z,64864.00
2023-05-25T08:11:21.980Z,63872.00
2023-05-25T08:12:42.386Z,66208.00
2023-05-25T08:13:22.940Z,33824.00
2023-05-25T08:14:21.958Z,18880.00
2023-05-25T08:15:21.906Z,6588.00
2023-05-25T08:16:21.944Z,10456.00
2023-05-25T08:17:22.008Z,54304.00
2023-05-25T08:18:21.876Z,34688.00
2023-05-25T08:19:21.867Z,4924.00
2023-05-25T08:20:21.937Z,3820.00
2023-05-25T08:21:21.863Z,4584.00
2023-05-25T08:22:21.863Z,5788.00
2023-05-25T08:23:21.822Z,36736.00
2023-05-25T08:24:21.843Z,66720.00
2023-05-25T08:25:21.798Z,52704.00
2023-05-25T08:26:37.794Z,72224.00
2023-05-25T08:27:22.785Z,67712.00
2023-05-25T08:28:21.767Z,67456.00
2023-05-25T08:29:21.791Z,72960.00
2023-05-25T08:30:21.745Z,79872.00
2023-05-25T08:31:21.820Z,83008.00
2023-05-25T08:32:21.768Z,82304.00
2023-05-25T08:33:22.429Z,75072.00
2023-05-25T08:34:21.712Z,72448.00
2023-05-25T08:35:21.692Z,36864.00
2023-05-25T08:36:21.718Z,65280.00
2023-05-25T08:37:21.692Z,67840.00
2023-05-25T08:38:21.665Z,70176.00
2023-05-25T08:39:21.665Z,9536.00
2023-05-25T08:40:21.645Z,6788.00
2023-05-25T08:41:21.671Z,5556.00
2023-05-25T08:42:21.627Z,5052.00
2023-05-25T08:43:21.609Z,5380.00
2023-05-25T08:44:21.601Z,5256.00
2023-05-25T08:45:34.173Z,5408.00
2023-05-25T08:46:22.615Z,5776.00
2023-05-25T08:47:21.563Z,6380.00
2023-05-25T08:49:21.582Z,6448.00
2023-05-25T08:50:21.537Z,6572.00
2023-05-25T08:51:21.576Z,7392.00
2023-05-25T08:52:21.563Z,9204.00
2023-05-25T08:53:21.547Z,8092.00
2023-05-25T08:54:21.524Z,7756.00
2023-05-25T08:55:21.493Z,7752.00
2023-05-25T08:56:21.486Z,8416.00
2023-05-25T08:57:21.473Z,9632.00
2023-05-25T08:58:21.447Z,11784.00
2023-05-25T08:59:21.438Z,12416.00
2023-05-25T09:00:21.443Z,16352.00
2023-05-25T09:01:21.513Z,12920.00
2023-05-25T09:02:21.541Z,20640.00
2023-05-25T09:03:21.446Z,77184.00
2023-05-25T09:04:21.450Z,61440.00
2023-05-25T09:05:21.374Z,28544.00
2023-05-25T09:06:21.368Z,12324.00
2023-05-25T09:07:21.391Z,9168.00
2023-05-25T09:08:21.346Z,9860.00
2023-05-25T09:09:21.476Z,10316.00
2023-05-25T09:10:21.317Z,8420.00
2023-05-25T09:11:36.154Z,10324.00
2023-05-25T09:12:22.328Z,13160.00
2023-05-25T09:13:22.855Z,7252.00
2023-05-25T09:14:21.277Z,8412.00
2023-05-25T09:15:21.267Z,10336.00
2023-05-25T09:16:21.298Z,16448.00
2023-05-25T09:17:21.288Z,23584.00
2023-05-25T09:18:21.272Z,20256.00
2023-05-25T09:19:21.226Z,34144.00
2023-05-25T09:20:21.252Z,50784.00
2023-05-25T09:21:21.222Z,53376.00
2023-05-25T09:22:21.193Z,33984.00
2023-05-25T09:23:21.206Z,44192.00
2023-05-25T09:24:21.171Z,64576.00
2023-05-25T09:25:21.191Z,8136.00
2023-05-25T09:26:21.173Z,6376.00
2023-05-25T09:27:21.148Z,6980.00
2023-05-25T09:29:21.125Z,8168.00
2023-05-25T09:30:21.106Z,9880.00
2023-05-25T09:31:21.135Z,17312.00
2023-05-25T09:32:21.210Z,72064.00
2023-05-25T09:33:21.150Z,73184.00
2023-05-25T09:34:21.084Z,92384.00
2023-05-25T09:35:21.068Z,94720.00
2023-05-25T09:36:21.275Z,82240.00
2023-05-25T09:37:21.192Z,16896.00
2023-05-25T09:38:21.184Z,6380.00
2023-05-25T09:39:21.119Z,5688.00
2023-05-25T09:40:21.012Z,6076.00
2023-05-25T09:41:21.040Z,6536.00
2023-05-25T09:42:20.990Z,7764.00
2023-05-25T09:43:36.395Z,9856.00
2023-05-25T09:44:21.997Z,14480.00
2023-05-25T09:45:20.960Z,31552.00
2023-05-25T09:46:21.034Z,55136.00
2023-05-25T09:47:20.965Z,23584.00
2023-05-25T09:48:20.926Z,13224.00
2023-05-25T09:49:20.929Z,11228.00
2023-05-25T09:50:20.934Z,9336.00
2023-05-25T09:51:20.903Z,12736.00
2023-05-25T09:52:20.894Z,10208.00
2023-05-25T09:53:20.880Z,11176.00
2023-05-25T09:54:20.861Z,10384.00
2023-05-25T09:55:20.882Z,7620.00
2023-05-25T09:56:20.848Z,8120.00
2023-05-25T09:57:20.965Z,8836.00
2023-05-25T09:58:20.848Z,8708.00
2023-05-25T09:59:20.821Z,9004.00
2023-05-25T10:00:20.832Z,10568.00
2023-05-25T10:01:20.813Z,12156.00
2023-05-25T10:02:20.783Z,10520.00
2023-05-25T10:03:20.780Z,9052.00
2023-05-25T10:04:20.972Z,10376.00
2023-05-25T10:05:20.773Z,11476.00
2023-05-25T10:06:20.740Z,13312.00
2023-05-25T10:07:20.738Z,10944.00
2023-05-25T10:08:20.756Z,9528.00
2023-05-25T10:09:20.713Z,8132.00
2023-05-25T10:10:20.732Z,8412.00
2023-05-25T10:11:20.711Z,9200.00
2023-05-25T10:12:20.688Z,12584.00
2023-05-25T10:13:20.745Z,13972.00
2023-05-25T10:14:20.675Z,10440.00
2023-05-25T10:15:20.691Z,11688.00
2023-05-25T10:16:20.651Z,12232.00
2023-05-25T10:17:20.663Z,14944.00
2023-05-25T10:18:20.623Z,15680.00
2023-05-25T10:19:20.626Z,12632.00
2023-05-25T10:20:20.690Z,13136.00
2023-05-25T10:21:20.586Z,11340.00
2023-05-25T10:22:20.591Z,15520.00
2023-05-25T10:23:20.548Z,15840.00
2023-05-25T10:24:20.564Z,8116.00
2023-05-25T10:25:20.536Z,6820.00
2023-05-25T10:26:20.536Z,8052.00
2023-05-25T10:27:26.816Z,10764.00
2023-05-25T10:28:21.506Z,14560.00
2023-05-25T10:29:20.542Z,15872.00
2023-05-25T10:30:20.469Z,12136.00
2023-05-25T10:31:20.464Z,13604.00
2023-05-25T10:32:20.484Z,12048.00
2023-05-25T10:33:20.495Z,9088.00
2023-05-25T10:34:20.429Z,8048.00
2023-05-25T10:35:20.417Z,8060.00
2023-05-25T10:36:20.419Z,8136.00
2023-05-25T10:37:20.442Z,8024.00
2023-05-25T10:38:20.387Z,7408.00
2023-05-25T10:39:20.377Z,7656.00
2023-05-25T10:40:20.375Z,7516.00
2023-05-25T10:41:20.362Z,7384.00
2023-05-25T10:42:20.365Z,7548.00
2023-05-25T10:43:20.336Z,7948.00
2023-05-25T10:44:20.330Z,8056.00
2023-05-25T10:45:20.340Z,9360.00
2023-05-25T10:46:20.317Z,9788.00
2023-05-25T10:47:20.441Z,14848.00
2023-05-25T10:48:20.309Z,8536.00
2023-05-25T10:49:20.272Z,8956.00
2023-05-25T10:50:20.261Z,9052.00
2023-05-25T10:51:20.254Z,9444.00
2023-05-25T10:52:20.259Z,10688.00
2023-05-25T10:53:20.275Z,33888.00
2023-05-25T10:54:20.209Z,49888.00
2023-05-25T10:55:20.221Z,85760.00
2023-05-25T10:56:20.191Z,78752.00
2023-05-25T10:57:20.192Z,91552.00
2023-05-25T10:58:20.180Z,102848.00
2023-05-25T10:59:20.160Z,20288.00
2023-05-25T11:00:20.208Z,31552.00
2023-05-25T11:01:20.238Z,15084.00
2023-05-25T11:02:20.127Z,10088.00
2023-05-25T11:03:20.120Z,9368.00
2023-05-25T11:04:20.121Z,7444.00
2023-05-25T11:05:20.124Z,18400.00
2023-05-25T11:06:20.082Z,41632.00
2023-05-25T11:07:20.074Z,34560.00
2023-05-25T11:08:20.059Z,60576.00
2023-05-25T11:09:20.056Z,48352.00
2023-05-25T11:10:20.072Z,58624.00
2023-05-25T11:11:20.063Z,57568.00
2023-05-25T11:12:20.012Z,47616.00
2023-05-25T11:13:20.011Z,52416.00
2023-05-25T11:14:19.996Z,49600.00
2023-05-25T11:15:20.001Z,27840.00
2023-05-25T11:16:20.059Z,27872.00
2023-05-25T11:17:20.085Z,16032.00
2023-05-25T11:18:19.957Z,25408.00
2023-05-25T11:19:19.948Z,19840.00
2023-05-25T11:20:19.966Z,13472.00
2023-05-25T11:21:19.972Z,20640.00
2023-05-25T11:22:19.909Z,11548.00
2023-05-25T11:23:19.910Z,11564.00
2023-05-25T11:24:19.940Z,10000.00
2023-05-25T11:25:19.897Z,7460.00
2023-05-25T11:26:19.972Z,9632.00
2023-05-25T11:27:19.895Z,12336.00
2023-05-25T11:28:19.848Z,13196.00
2023-05-25T11:29:19.842Z,13664.00
2023-05-25T11:30:19.863Z,11384.00
2023-05-25T11:31:19.873Z,8504.00
2023-05-25T11:32:19.937Z,5868.00
2023-05-25T11:33:19.836Z,5464.00
2023-05-25T11:34:19.811Z,6296.00
2023-05-25T11:35:19.786Z,7424.00
2023-05-25T11:36:19.774Z,8824.00
2023-05-25T11:37:19.771Z,10016.00
2023-05-25T11:38:19.752Z,15780.00
2023-05-25T11:39:22.685Z,111232.00
2023-05-25T11:40:19.720Z,102688.00
2023-05-25T11:41:19.745Z,19136.00
2023-05-25T11:42:19.724Z,6056.00
2023-05-25T11:43:19.702Z,5588.00
2023-05-25T11:44:19.681Z,5012.00
2023-05-25T11:45:19.672Z,4696.00
2023-05-25T11:46:19.745Z,5196.00
2023-05-25T11:47:19.657Z,8560.00
2023-05-25T11:48:19.718Z,11772.00
2023-05-25T11:49:19.680Z,11256.00
2023-05-25T11:50:19.626Z,11004.00
2023-05-25T11:51:19.613Z,9780.00
2023-05-25T11:52:19.603Z,11628.00
2023-05-25T11:53:19.591Z,7628.00
2023-05-25T11:54:19.603Z,6460.00
2023-05-25T11:55:19.571Z,10736.00
2023-05-25T11:56:33.754Z,8652.00
2023-05-25T11:57:20.561Z,5508.00
2023-05-25T11:58:19.529Z,6476.00
2023-05-25T11:59:19.556Z,7708.00
2023-05-25T12:00:19.521Z,8048.00
2023-05-25T12:01:19.519Z,7940.00
2023-05-25T12:02:19.494Z,8764.00
2023-05-25T12:03:19.569Z,12956.00
2023-05-25T12:04:21.179Z,13300.00
2023-05-25T12:05:19.587Z,14784.00
2023-05-25T12:06:19.457Z,3936.00
2023-05-25T12:07:19.444Z,5732.00
2023-05-25T12:08:19.427Z,4940.00
2023-05-25T12:09:19.420Z,5304.00
2023-05-25T12:10:19.421Z,4352.00
2023-05-25T12:11:19.393Z,3688.00
2023-05-25T12:12:19.390Z,4020.00
2023-05-25T12:13:19.381Z,4760.00
2023-05-25T12:14:19.364Z,4660.00
2023-05-25T12:15:20.955Z,4576.00
2023-05-25T12:16:19.365Z,5556.00
2023-05-25T12:17:19.472Z,7352.00
2023-05-25T12:18:19.317Z,10680.00
2023-05-25T12:19:19.305Z,10660.00
2023-05-25T12:20:19.422Z,13156.00
2023-05-25T12:21:19.324Z,39488.00